sensor_id;sensor_type;location;lat;lon;timestamp;P1;durP1;ratioP1;P2;durP2;ratioP2
73452;SDS011;61687;56.232;43.854;2022-10-16T00:02:06;29.95;;;14.98;;
73452;SDS011;61687;56.232;43.854;2022-10-16T00:04:32;27.00;;;13.77;;
73452;SDS011;61687;56.232;43.854;2022-10-16T00:06:58;25.95;;;14.02;;
73452;SDS011;61687;56.232;43.854;2022-10-16T00:09:24;31.50;;;13.48;;
73452;SDS011;61687;56.232;43.854;2022-10-16T00:11:49;28.37;;;14.27;;
73452;SDS011;61687;56.232;43.854;2022-10-16T00:14:15;27.42;;;13.55;;
73452;SDS011;61687;56.232;43.854;2022-10-16T00:16:41;26.30;;;14.15;;
73452;SDS011;61687;56.232;43.854;2022-10-16T00:19:09;25.85;;;14.38;;
73452;SDS011;61687;56.232;43.854;2022-10-16T00:21:36;29.60;;;13.87;;
73452;SDS011;61687;56.232;43.854;2022-10-16T00:24:21;25.48;;;13.85;;
73452;SDS011;61687;56.232;43.854;2022-10-16T00:26:48;28.67;;;14.45;;
73452;SDS011;61687;56.232;43.854;2022-10-16T00:29:15;26.73;;;13.57;;
73452;SDS011;61687;56.232;43.854;2022-10-16T00:31:41;25.60;;;13.80;;
73452;SDS011;61687;56.232;43.854;2022-10-16T00:34:07;22.63;;;12.82;;
73452;SDS011;61687;56.232;43.854;2022-10-16T00:36:33;24.58;;;14.20;;
73452;SDS011;61687;56.232;43.854;2022-10-16T00:38:59;22.13;;;12.88;;
73452;SDS011;61687;56.232;43.854;2022-10-16T00:41:26;25.40;;;12.90;;
73452;SDS011;61687;56.232;43.854;2022-10-16T00:43:54;21.20;;;12.57;;
73452;SDS011;61687;56.232;43.854;2022-10-16T00:46:25;21.02;;;12.98;;
73452;SDS011;61687;56.232;43.854;2022-10-16T00:49:04;20.80;;;12.80;;
73452;SDS011;61687;56.232;43.854;2022-10-16T00:51:35;22.27;;;11.95;;
73452;SDS011;61687;56.232;43.854;2022-10-16T00:54:04;24.92;;;12.20;;
73452;SDS011;61687;56.232;43.854;2022-10-16T00:56:34;22.50;;;12.75;;
73452;SDS011;61687;56.232;43.854;2022-10-16T00:59:01;21.27;;;12.20;;
73452;SDS011;61687;56.232;43.854;2022-10-16T01:01:32;21.13;;;12.23;;
73452;SDS011;61687;56.232;43.854;2022-10-16T01:03:57;18.37;;;10.97;;
73452;SDS011;61687;56.232;43.854;2022-10-16T01:06:25;22.15;;;12.45;;
73452;SDS011;61687;56.232;43.854;2022-10-16T01:09:06;21.67;;;11.35;;
73452;SDS011;61687;56.232;43.854;2022-10-16T01:17:45;22.45;;;11.27;;
73452;SDS011;61687;56.232;43.854;2022-10-16T01:22:57;19.40;;;12.02;;
73452;SDS011;61687;56.232;43.854;2022-10-16T01:25:28;20.50;;;11.93;;
73452;SDS011;61687;56.232;43.854;2022-10-16T01:28:15;23.97;;;11.47;;
73452;SDS011;61687;56.232;43.854;2022-10-16T01:30:44;20.95;;;12.20;;
73452;SDS011;61687;56.232;43.854;2022-10-16T01:33:19;21.20;;;12.38;;
73452;SDS011;61687;56.232;43.854;2022-10-16T01:35:48;22.02;;;12.57;;
73452;SDS011;61687;56.232;43.854;2022-10-16T01:38:19;21.10;;;12.07;;
73452;SDS011;61687;56.232;43.854;2022-10-16T01:40:52;19.50;;;12.03;;
73452;SDS011;61687;56.232;43.854;2022-10-16T01:43:25;22.35;;;11.98;;
73452;SDS011;61687;56.232;43.854;2022-10-16T01:45:56;24.52;;;13.20;;
73452;SDS011;61687;56.232;43.854;2022-10-16T01:48:24;32.10;;;12.35;;
73452;SDS011;61687;56.232;43.854;2022-10-16T01:50:53;20.63;;;12.68;;
73452;SDS011;61687;56.232;43.854;2022-10-16T01:53:26;18.90;;;11.98;;
73452;SDS011;61687;56.232;43.854;2022-10-16T01:55:53;22.55;;;13.05;;
73452;SDS011;61687;56.232;43.854;2022-10-16T01:58:23;23.13;;;12.85;;
73452;SDS011;61687;56.232;43.854;2022-10-16T02:00:51;22.60;;;11.55;;
73452;SDS011;61687;56.232;43.854;2022-10-16T02:03:19;19.17;;;11.23;;
73452;SDS011;61687;56.232;43.854;2022-10-16T02:08:17;23.30;;;12.57;;
73452;SDS011;61687;56.232;43.854;2022-10-16T02:10:43;20.50;;;12.40;;
73452;SDS011;61687;56.232;43.854;2022-10-16T02:13:10;20.75;;;11.60;;
73452;SDS011;61687;56.232;43.854;2022-10-16T02:16:01;22.07;;;11.80;;
73452;SDS011;61687;56.232;43.854;2022-10-16T02:18:27;21.65;;;11.00;;
73452;SDS011;61687;56.232;43.854;2022-10-16T02:20:57;20.73;;;10.25;;
73452;SDS011;61687;56.232;43.854;2022-10-16T02:29:22;18.37;;;10.73;;
73452;SDS011;61687;56.232;43.854;2022-10-16T02:31:52;23.23;;;11.60;;
73452;SDS011;61687;56.232;43.854;2022-10-16T02:34:24;19.10;;;11.40;;
73452;SDS011;61687;56.232;43.854;2022-10-16T02:36:52;18.13;;;10.23;;
73452;SDS011;61687;56.232;43.854;2022-10-16T02:39:20;20.25;;;10.70;;
73452;SDS011;61687;56.232;43.854;2022-10-16T02:41:47;18.57;;;11.37;;
73452;SDS011;61687;56.232;43.854;2022-10-16T02:44:13;18.08;;;11.30;;
73452;SDS011;61687;56.232;43.854;2022-10-16T02:46:39;22.23;;;12.32;;
73452;SDS011;61687;56.232;43.854;2022-10-16T02:49:05;19.27;;;11.40;;
73452;SDS011;61687;56.232;43.854;2022-10-16T02:51:31;22.47;;;11.70;;
73452;SDS011;61687;56.232;43.854;2022-10-16T02:53:56;21.48;;;10.95;;
73452;SDS011;61687;56.232;43.854;2022-10-16T02:56:22;21.63;;;10.88;;
73452;SDS011;61687;56.232;43.854;2022-10-16T02:58:49;23.88;;;11.13;;
73452;SDS011;61687;56.232;43.854;2022-10-16T03:01:15;17.85;;;10.50;;
73452;SDS011;61687;56.232;43.854;2022-10-16T03:03:42;19.55;;;10.68;;
73452;SDS011;61687;56.232;43.854;2022-10-16T03:06:08;19.52;;;11.25;;
73452;SDS011;61687;56.232;43.854;2022-10-16T03:08:34;19.55;;;11.82;;
73452;SDS011;61687;56.232;43.854;2022-10-16T03:11:00;19.57;;;10.47;;
73452;SDS011;61687;56.232;43.854;2022-10-16T03:13:27;19.40;;;10.52;;
73452;SDS011;61687;56.232;43.854;2022-10-16T03:15:53;24.88;;;12.38;;
73452;SDS011;61687;56.232;43.854;2022-10-16T03:18:19;23.20;;;11.85;;
73452;SDS011;61687;56.232;43.854;2022-10-16T03:20:45;20.67;;;10.68;;
73452;SDS011;61687;56.232;43.854;2022-10-16T03:23:11;22.42;;;11.07;;
73452;SDS011;61687;56.232;43.854;2022-10-16T03:25:37;23.73;;;11.10;;
73452;SDS011;61687;56.232;43.854;2022-10-16T03:28:03;20.08;;;11.77;;
73452;SDS011;61687;56.232;43.854;2022-10-16T03:30:29;23.60;;;11.90;;
73452;SDS011;61687;56.232;43.854;2022-10-16T03:32:55;23.33;;;11.75;;
73452;SDS011;61687;56.232;43.854;2022-10-16T03:35:21;21.25;;;11.23;;
73452;SDS011;61687;56.232;43.854;2022-10-16T03:37:48;21.73;;;12.07;;
73452;SDS011;61687;56.232;43.854;2022-10-16T03:40:14;23.97;;;11.83;;
73452;SDS011;61687;56.232;43.854;2022-10-16T03:42:41;19.70;;;11.93;;
73452;SDS011;61687;56.232;43.854;2022-10-16T03:45:08;24.73;;;12.18;;
73452;SDS011;61687;56.232;43.854;2022-10-16T03:47:34;23.77;;;13.32;;
73452;SDS011;61687;56.232;43.854;2022-10-16T03:50:00;23.63;;;11.90;;
73452;SDS011;61687;56.232;43.854;2022-10-16T03:52:28;24.98;;;12.63;;
73452;SDS011;61687;56.232;43.854;2022-10-16T03:54:54;27.52;;;13.82;;
73452;SDS011;61687;56.232;43.854;2022-10-16T03:57:20;25.55;;;12.80;;
73452;SDS011;61687;56.232;43.854;2022-10-16T03:59:47;34.23;;;16.20;;
73452;SDS011;61687;56.232;43.854;2022-10-16T04:02:13;35.60;;;16.20;;
73452;SDS011;61687;56.232;43.854;2022-10-16T04:04:38;31.45;;;16.95;;
73452;SDS011;61687;56.232;43.854;2022-10-16T04:07:04;31.50;;;16.05;;
73452;SDS011;61687;56.232;43.854;2022-10-16T04:09:30;31.27;;;16.20;;
73452;SDS011;61687;56.232;43.854;2022-10-16T04:11:56;31.83;;;15.18;;
73452;SDS011;61687;56.232;43.854;2022-10-16T04:14:22;28.20;;;13.80;;
73452;SDS011;61687;56.232;43.854;2022-10-16T04:16:48;33.80;;;15.10;;
73452;SDS011;61687;56.232;43.854;2022-10-16T04:19:14;29.98;;;14.48;;
73452;SDS011;61687;56.232;43.854;2022-10-16T04:21:40;30.08;;;15.10;;
73452;SDS011;61687;56.232;43.854;2022-10-16T04:24:05;32.40;;;15.87;;
73452;SDS011;61687;56.232;43.854;2022-10-16T04:26:31;35.28;;;14.68;;
73452;SDS011;61687;56.232;43.854;2022-10-16T04:28:57;29.48;;;14.73;;
73452;SDS011;61687;56.232;43.854;2022-10-16T04:31:23;29.90;;;13.93;;
73452;SDS011;61687;56.232;43.854;2022-10-16T04:33:49;30.45;;;14.23;;
73452;SDS011;61687;56.232;43.854;2022-10-16T04:36:15;26.65;;;13.55;;
73452;SDS011;61687;56.232;43.854;2022-10-16T04:38:41;25.33;;;12.90;;
73452;SDS011;61687;56.232;43.854;2022-10-16T04:41:07;23.25;;;13.02;;
73452;SDS011;61687;56.232;43.854;2022-10-16T04:43:33;22.40;;;13.35;;
73452;SDS011;61687;56.232;43.854;2022-10-16T04:45:59;25.25;;;12.73;;
73452;SDS011;61687;56.232;43.854;2022-10-16T04:48:26;21.10;;;12.77;;
73452;SDS011;61687;56.232;43.854;2022-10-16T04:50:52;23.07;;;12.37;;
73452;SDS011;61687;56.232;43.854;2022-10-16T04:53:18;22.48;;;12.40;;
73452;SDS011;61687;56.232;43.854;2022-10-16T04:55:44;20.92;;;12.43;;
73452;SDS011;61687;56.232;43.854;2022-10-16T04:58:10;19.63;;;12.03;;
73452;SDS011;61687;56.232;43.854;2022-10-16T05:00:36;24.73;;;12.57;;
73452;SDS011;61687;56.232;43.854;2022-10-16T05:03:02;29.90;;;12.70;;
73452;SDS011;61687;56.232;43.854;2022-10-16T05:05:31;20.50;;;12.00;;
73452;SDS011;61687;56.232;43.854;2022-10-16T05:07:57;25.55;;;13.52;;
73452;SDS011;61687;56.232;43.854;2022-10-16T05:10:23;20.10;;;12.50;;
73452;SDS011;61687;56.232;43.854;2022-10-16T05:12:49;21.88;;;13.60;;
73452;SDS011;61687;56.232;43.854;2022-10-16T05:15:15;23.83;;;12.65;;
73452;SDS011;61687;56.232;43.854;2022-10-16T05:17:41;25.87;;;13.77;;
73452;SDS011;61687;56.232;43.854;2022-10-16T05:20:07;20.33;;;11.90;;
73452;SDS011;61687;56.232;43.854;2022-10-16T05:22:33;23.63;;;12.40;;
73452;SDS011;61687;56.232;43.854;2022-10-16T05:24:59;25.20;;;13.10;;
73452;SDS011;61687;56.232;43.854;2022-10-16T05:27:24;27.43;;;11.63;;
73452;SDS011;61687;56.232;43.854;2022-10-16T05:29:50;19.08;;;11.80;;
73452;SDS011;61687;56.232;43.854;2022-10-16T05:32:17;22.27;;;11.00;;
73452;SDS011;61687;56.232;43.854;2022-10-16T05:34:43;21.13;;;12.00;;
73452;SDS011;61687;56.232;43.854;2022-10-16T05:37:10;22.37;;;13.23;;
73452;SDS011;61687;56.232;43.854;2022-10-16T05:39:37;21.88;;;12.25;;
73452;SDS011;61687;56.232;43.854;2022-10-16T05:42:04;25.85;;;12.95;;
73452;SDS011;61687;56.232;43.854;2022-10-16T05:44:30;22.55;;;12.25;;
73452;SDS011;61687;56.232;43.854;2022-10-16T05:46:56;20.33;;;11.67;;
73452;SDS011;61687;56.232;43.854;2022-10-16T05:49:22;22.17;;;12.50;;
73452;SDS011;61687;56.232;43.854;2022-10-16T05:51:48;20.40;;;11.52;;
73452;SDS011;61687;56.232;43.854;2022-10-16T05:54:14;22.47;;;12.13;;
73452;SDS011;61687;56.232;43.854;2022-10-16T05:56:40;22.30;;;11.98;;
73452;SDS011;61687;56.232;43.854;2022-10-16T05:59:05;22.95;;;12.90;;
73452;SDS011;61687;56.232;43.854;2022-10-16T06:01:32;19.58;;;11.85;;
73452;SDS011;61687;56.232;43.854;2022-10-16T06:03:58;22.93;;;11.73;;
73452;SDS011;61687;56.232;43.854;2022-10-16T06:06:25;21.48;;;11.65;;
73452;SDS011;61687;56.232;43.854;2022-10-16T06:08:53;20.83;;;11.00;;
73452;SDS011;61687;56.232;43.854;2022-10-16T06:11:20;18.90;;;11.95;;
73452;SDS011;61687;56.232;43.854;2022-10-16T06:13:51;21.25;;;11.30;;
73452;SDS011;61687;56.232;43.854;2022-10-16T06:16:22;21.80;;;10.60;;
73452;SDS011;61687;56.232;43.854;2022-10-16T06:18:53;21.02;;;11.52;;
73452;SDS011;61687;56.232;43.854;2022-10-16T06:21:20;19.40;;;11.65;;
73452;SDS011;61687;56.232;43.854;2022-10-16T06:23:47;21.77;;;11.93;;
73452;SDS011;61687;56.232;43.854;2022-10-16T06:26:15;19.65;;;11.00;;
73452;SDS011;61687;56.232;43.854;2022-10-16T06:28:45;22.73;;;12.10;;
73452;SDS011;61687;56.232;43.854;2022-10-16T06:31:11;22.50;;;11.40;;
73452;SDS011;61687;56.232;43.854;2022-10-16T06:33:39;21.00;;;12.10;;
73452;SDS011;61687;56.232;43.854;2022-10-16T06:36:07;19.73;;;11.23;;
73452;SDS011;61687;56.232;43.854;2022-10-16T06:38:37;19.00;;;11.80;;
73452;SDS011;61687;56.232;43.854;2022-10-16T06:41:04;20.70;;;12.30;;
73452;SDS011;61687;56.232;43.854;2022-10-16T06:43:31;19.25;;;10.95;;
73452;SDS011;61687;56.232;43.854;2022-10-16T06:45:58;25.20;;;12.07;;
73452;SDS011;61687;56.232;43.854;2022-10-16T06:48:25;22.40;;;11.90;;
73452;SDS011;61687;56.232;43.854;2022-10-16T06:51:02;20.20;;;12.07;;
73452;SDS011;61687;56.232;43.854;2022-10-16T06:53:33;24.17;;;12.97;;
73452;SDS011;61687;56.232;43.854;2022-10-16T06:56:14;29.50;;;12.80;;
73452;SDS011;61687;56.232;43.854;2022-10-16T06:58:45;23.73;;;12.77;;
73452;SDS011;61687;56.232;43.854;2022-10-16T07:01:12;23.95;;;12.93;;
73452;SDS011;61687;56.232;43.854;2022-10-16T07:03:39;24.60;;;12.57;;
73452;SDS011;61687;56.232;43.854;2022-10-16T07:06:07;24.17;;;12.90;;
73452;SDS011;61687;56.232;43.854;2022-10-16T07:08:35;23.65;;;14.15;;
73452;SDS011;61687;56.232;43.854;2022-10-16T07:11:03;30.05;;;15.10;;
73452;SDS011;61687;56.232;43.854;2022-10-16T07:13:32;32.55;;;14.88;;
73452;SDS011;61687;56.232;43.854;2022-10-16T07:16:09;29.13;;;14.20;;
73452;SDS011;61687;56.232;43.854;2022-10-16T07:18:37;27.43;;;13.87;;
73452;SDS011;61687;56.232;43.854;2022-10-16T07:21:12;26.58;;;14.10;;
73452;SDS011;61687;56.232;43.854;2022-10-16T07:23:40;32.15;;;12.50;;
73452;SDS011;61687;56.232;43.854;2022-10-16T07:26:06;27.65;;;13.48;;
73452;SDS011;61687;56.232;43.854;2022-10-16T07:28:33;23.38;;;13.55;;
73452;SDS011;61687;56.232;43.854;2022-10-16T07:31:02;30.77;;;14.60;;
73452;SDS011;61687;56.232;43.854;2022-10-16T07:33:30;29.40;;;15.48;;
73452;SDS011;61687;56.232;43.854;2022-10-16T07:35:56;36.53;;;17.08;;
73452;SDS011;61687;56.232;43.854;2022-10-16T07:38:23;26.60;;;15.43;;
73452;SDS011;61687;56.232;43.854;2022-10-16T07:40:55;23.67;;;13.87;;
73452;SDS011;61687;56.232;43.854;2022-10-16T07:43:23;32.08;;;15.73;;
73452;SDS011;61687;56.232;43.854;2022-10-16T07:45:49;25.25;;;15.30;;
73452;SDS011;61687;56.232;43.854;2022-10-16T07:48:16;25.40;;;16.00;;
73452;SDS011;61687;56.232;43.854;2022-10-16T07:50:43;31.67;;;17.20;;
73452;SDS011;61687;56.232;43.854;2022-10-16T07:53:09;29.63;;;15.10;;
73452;SDS011;61687;56.232;43.854;2022-10-16T07:55:36;30.27;;;16.05;;
73452;SDS011;61687;56.232;43.854;2022-10-16T07:58:02;31.45;;;15.90;;
73452;SDS011;61687;56.232;43.854;2022-10-16T08:00:28;30.85;;;16.83;;
73452;SDS011;61687;56.232;43.854;2022-10-16T08:02:54;33.97;;;18.67;;
73452;SDS011;61687;56.232;43.854;2022-10-16T08:05:20;32.40;;;18.00;;
73452;SDS011;61687;56.232;43.854;2022-10-16T08:07:49;33.78;;;18.40;;
73452;SDS011;61687;56.232;43.854;2022-10-16T08:10:18;34.83;;;18.23;;
73452;SDS011;61687;56.232;43.854;2022-10-16T08:12:46;36.43;;;18.03;;
73452;SDS011;61687;56.232;43.854;2022-10-16T08:15:11;32.25;;;18.08;;
73452;SDS011;61687;56.232;43.854;2022-10-16T08:17:37;33.92;;;16.73;;
73452;SDS011;61687;56.232;43.854;2022-10-16T08:20:03;29.50;;;16.43;;
73452;SDS011;61687;56.232;43.854;2022-10-16T08:22:30;26.45;;;14.95;;
73452;SDS011;61687;56.232;43.854;2022-10-16T08:24:56;30.10;;;14.00;;
73452;SDS011;61687;56.232;43.854;2022-10-16T08:27:22;27.52;;;15.38;;
73452;SDS011;61687;56.232;43.854;2022-10-16T08:29:48;25.87;;;14.10;;
73452;SDS011;61687;56.232;43.854;2022-10-16T08:32:14;25.08;;;14.48;;
73452;SDS011;61687;56.232;43.854;2022-10-16T08:34:40;25.15;;;14.15;;
73452;SDS011;61687;56.232;43.854;2022-10-16T08:37:06;25.10;;;13.77;;
73452;SDS011;61687;56.232;43.854;2022-10-16T08:39:36;24.83;;;14.30;;
73452;SDS011;61687;56.232;43.854;2022-10-16T08:50:32;25.67;;;13.23;;
73452;SDS011;61687;56.232;43.854;2022-10-16T08:53:01;23.77;;;13.70;;
73452;SDS011;61687;56.232;43.854;2022-10-16T08:58:00;23.20;;;13.35;;
73452;SDS011;61687;56.232;43.854;2022-10-16T09:00:26;30.17;;;15.07;;
73452;SDS011;61687;56.232;43.854;2022-10-16T09:02:56;25.97;;;14.43;;
73452;SDS011;61687;56.232;43.854;2022-10-16T09:10:38;27.52;;;14.35;;
73452;SDS011;61687;56.232;43.854;2022-10-16T09:15:58;29.23;;;13.82;;
73452;SDS011;61687;56.232;43.854;2022-10-16T09:18:42;30.15;;;14.45;;
73452;SDS011;61687;56.232;43.854;2022-10-16T09:21:29;32.90;;;15.23;;
73452;SDS011;61687;56.232;43.854;2022-10-16T09:26:55;26.70;;;14.67;;
73452;SDS011;61687;56.232;43.854;2022-10-16T09:29:21;25.60;;;15.07;;
73452;SDS011;61687;56.232;43.854;2022-10-16T09:31:50;33.28;;;16.05;;
73452;SDS011;61687;56.232;43.854;2022-10-16T09:34:31;33.25;;;18.48;;
73452;SDS011;61687;56.232;43.854;2022-10-16T09:37:04;32.23;;;17.57;;
73452;SDS011;61687;56.232;43.854;2022-10-16T09:39:45;43.45;;;19.17;;
73452;SDS011;61687;56.232;43.854;2022-10-16T09:42:18;36.78;;;20.65;;
73452;SDS011;61687;56.232;43.854;2022-10-16T09:44:50;39.30;;;21.08;;
73452;SDS011;61687;56.232;43.854;2022-10-16T09:47:18;37.22;;;20.13;;
73452;SDS011;61687;56.232;43.854;2022-10-16T09:49:51;42.97;;;21.30;;
73452;SDS011;61687;56.232;43.854;2022-10-16T09:52:29;27.13;;;15.27;;
73452;SDS011;61687;56.232;43.854;2022-10-16T09:57:23;23.10;;;13.10;;
73452;SDS011;61687;56.232;43.854;2022-10-16T09:59:56;22.35;;;13.43;;
73452;SDS011;61687;56.232;43.854;2022-10-16T10:02:30;25.13;;;13.10;;
73452;SDS011;61687;56.232;43.854;2022-10-16T10:05:01;19.00;;;11.13;;
73452;SDS011;61687;56.232;43.854;2022-10-16T10:07:30;21.33;;;13.43;;
73452;SDS011;61687;56.232;43.854;2022-10-16T10:09:59;21.42;;;11.60;;
73452;SDS011;61687;56.232;43.854;2022-10-16T10:12:29;23.58;;;12.20;;
73452;SDS011;61687;56.232;43.854;2022-10-16T10:15:07;24.63;;;12.03;;
73452;SDS011;61687;56.232;43.854;2022-10-16T10:20:26;21.20;;;11.55;;
73452;SDS011;61687;56.232;43.854;2022-10-16T10:23:19;23.30;;;12.18;;
73452;SDS011;61687;56.232;43.854;2022-10-16T10:25:59;23.95;;;11.98;;
73452;SDS011;61687;56.232;43.854;2022-10-16T10:28:53;24.97;;;11.60;;
73452;SDS011;61687;56.232;43.854;2022-10-16T10:31:39;19.55;;;11.07;;
73452;SDS011;61687;56.232;43.854;2022-10-16T10:34:59;17.30;;;10.57;;
73452;SDS011;61687;56.232;43.854;2022-10-16T10:42:41;22.27;;;11.23;;
73452;SDS011;61687;56.232;43.854;2022-10-16T10:47:53;28.15;;;12.90;;
73452;SDS011;61687;56.232;43.854;2022-10-16T10:55:48;17.50;;;10.03;;
73452;SDS011;61687;56.232;43.854;2022-10-16T11:01:04;24.83;;;15.35;;
73452;SDS011;61687;56.232;43.854;2022-10-16T11:03:42;17.90;;;10.93;;
73452;SDS011;61687;56.232;43.854;2022-10-16T11:06:24;17.55;;;10.80;;
73452;SDS011;61687;56.232;43.854;2022-10-16T11:08:56;18.60;;;8.63;;
73452;SDS011;61687;56.232;43.854;2022-10-16T11:11:38;14.40;;;7.40;;
73452;SDS011;61687;56.232;43.854;2022-10-16T11:14:31;11.88;;;7.07;;
73452;SDS011;61687;56.232;43.854;2022-10-16T11:17:21;19.42;;;7.18;;
73452;SDS011;61687;56.232;43.854;2022-10-16T11:19:58;16.02;;;8.23;;
73452;SDS011;61687;56.232;43.854;2022-10-16T11:27:37;14.02;;;7.85;;
73452;SDS011;61687;56.232;43.854;2022-10-16T11:30:18;12.77;;;8.00;;
73452;SDS011;61687;56.232;43.854;2022-10-16T11:35:21;13.23;;;8.63;;
73452;SDS011;61687;56.232;43.854;2022-10-16T11:37:51;17.38;;;8.95;;
73452;SDS011;61687;56.232;43.854;2022-10-16T11:40:22;17.58;;;10.18;;
73452;SDS011;61687;56.232;43.854;2022-10-16T11:43:13;15.55;;;8.45;;
73452;SDS011;61687;56.232;43.854;2022-10-16T11:45:43;16.20;;;7.22;;
73452;SDS011;61687;56.232;43.854;2022-10-16T11:56:43;15.10;;;6.82;;
73452;SDS011;61687;56.232;43.854;2022-10-16T12:01:45;15.50;;;5.90;;
73452;SDS011;61687;56.232;43.854;2022-10-16T12:06:55;13.27;;;6.63;;
73452;SDS011;61687;56.232;43.854;2022-10-16T12:09:27;12.45;;;6.07;;
73452;SDS011;61687;56.232;43.854;2022-10-16T12:11:58;15.48;;;6.30;;
73452;SDS011;61687;56.232;43.854;2022-10-16T12:19:20;11.40;;;6.72;;
73452;SDS011;61687;56.232;43.854;2022-10-16T12:21:47;10.32;;;6.65;;
73452;SDS011;61687;56.232;43.854;2022-10-16T12:26:54;10.70;;;6.10;;
73452;SDS011;61687;56.232;43.854;2022-10-16T12:31:52;12.27;;;6.70;;
73452;SDS011;61687;56.232;43.854;2022-10-16T12:34:39;13.23;;;6.43;;
73452;SDS011;61687;56.232;43.854;2022-10-16T12:37:11;10.93;;;6.07;;
73452;SDS011;61687;56.232;43.854;2022-10-16T12:39:45;11.43;;;6.25;;
73452;SDS011;61687;56.232;43.854;2022-10-16T12:44:49;13.43;;;8.07;;
73452;SDS011;61687;56.232;43.854;2022-10-16T12:49:56;17.53;;;8.50;;
73452;SDS011;61687;56.232;43.854;2022-10-16T12:52:28;19.75;;;8.95;;
73452;SDS011;61687;56.232;43.854;2022-10-16T12:54:59;18.42;;;8.65;;
73452;SDS011;61687;56.232;43.854;2022-10-16T12:58:15;16.38;;;8.10;;
73452;SDS011;61687;56.232;43.854;2022-10-16T13:00:32;16.60;;;8.52;;
73452;SDS011;61687;56.232;43.854;2022-10-16T13:05:31;35.20;;;10.98;;
73452;SDS011;61687;56.232;43.854;2022-10-16T13:11:03;22.17;;;10.27;;
73452;SDS011;61687;56.232;43.854;2022-10-16T13:24:48;29.83;;;16.25;;
73452;SDS011;61687;56.232;43.854;2022-10-16T13:30:25;28.02;;;14.43;;
73452;SDS011;61687;56.232;43.854;2022-10-16T13:35:49;38.35;;;15.68;;
73452;SDS011;61687;56.232;43.854;2022-10-16T13:38:23;44.50;;;16.60;;
73452;SDS011;61687;56.232;43.854;2022-10-16T13:43:44;34.00;;;15.85;;
73452;SDS011;61687;56.232;43.854;2022-10-16T13:46:17;37.10;;;16.13;;
73452;SDS011;61687;56.232;43.854;2022-10-16T13:48:55;43.58;;;17.13;;
73452;SDS011;61687;56.232;43.854;2022-10-16T13:51:32;41.28;;;17.90;;
73452;SDS011;61687;56.232;43.854;2022-10-16T13:53:58;40.57;;;17.30;;
73452;SDS011;61687;56.232;43.854;2022-10-16T13:56:26;40.80;;;17.58;;
73452;SDS011;61687;56.232;43.854;2022-10-16T14:01:40;31.30;;;16.10;;
73452;SDS011;61687;56.232;43.854;2022-10-16T14:04:09;32.22;;;14.15;;
73452;SDS011;61687;56.232;43.854;2022-10-16T14:06:41;32.07;;;15.33;;
73452;SDS011;61687;56.232;43.854;2022-10-16T14:09:27;31.65;;;14.70;;
73452;SDS011;61687;56.232;43.854;2022-10-16T14:14:27;32.40;;;15.45;;
73452;SDS011;61687;56.232;43.854;2022-10-16T14:17:15;39.13;;;15.32;;
73452;SDS011;61687;56.232;43.854;2022-10-16T14:19:48;36.67;;;15.63;;
73452;SDS011;61687;56.232;43.854;2022-10-16T14:22:28;33.70;;;15.18;;
73452;SDS011;61687;56.232;43.854;2022-10-16T14:25:00;32.72;;;14.88;;
73452;SDS011;61687;56.232;43.854;2022-10-16T14:27:33;27.60;;;12.95;;
73452;SDS011;61687;56.232;43.854;2022-10-16T14:30:17;27.35;;;13.20;;
73452;SDS011;61687;56.232;43.854;2022-10-16T14:35:25;22.23;;;11.80;;
73452;SDS011;61687;56.232;43.854;2022-10-16T14:37:57;24.85;;;11.95;;
73452;SDS011;61687;56.232;43.854;2022-10-16T14:40:26;21.42;;;11.82;;
73452;SDS011;61687;56.232;43.854;2022-10-16T14:42:54;26.27;;;12.80;;
73452;SDS011;61687;56.232;43.854;2022-10-16T14:45:21;28.77;;;12.23;;
73452;SDS011;61687;56.232;43.854;2022-10-16T14:47:53;21.52;;;12.13;;
73452;SDS011;61687;56.232;43.854;2022-10-16T14:50:21;23.15;;;10.80;;
73452;SDS011;61687;56.232;43.854;2022-10-16T14:52:48;22.25;;;12.20;;
73452;SDS011;61687;56.232;43.854;2022-10-16T14:55:14;27.20;;;11.83;;
73452;SDS011;61687;56.232;43.854;2022-10-16T14:57:40;23.02;;;12.48;;
73452;SDS011;61687;56.232;43.854;2022-10-16T15:00:21;23.77;;;12.35;;
73452;SDS011;61687;56.232;43.854;2022-10-16T15:02:48;26.33;;;11.85;;
73452;SDS011;61687;56.232;43.854;2022-10-16T15:07:41;26.50;;;11.83;;
73452;SDS011;61687;56.232;43.854;2022-10-16T15:10:07;25.75;;;11.68;;
73452;SDS011;61687;56.232;43.854;2022-10-16T15:12:33;24.00;;;11.25;;
73452;SDS011;61687;56.232;43.854;2022-10-16T15:14:59;26.90;;;13.13;;
73452;SDS011;61687;56.232;43.854;2022-10-16T15:17:25;24.38;;;11.52;;
73452;SDS011;61687;56.232;43.854;2022-10-16T15:19:50;23.95;;;12.20;;
73452;SDS011;61687;56.232;43.854;2022-10-16T15:22:16;22.60;;;11.57;;
73452;SDS011;61687;56.232;43.854;2022-10-16T15:24:42;21.15;;;10.00;;
73452;SDS011;61687;56.232;43.854;2022-10-16T15:27:08;21.85;;;12.35;;
73452;SDS011;61687;56.232;43.854;2022-10-16T15:29:34;24.63;;;10.88;;
73452;SDS011;61687;56.232;43.854;2022-10-16T15:32:00;19.27;;;10.30;;
73452;SDS011;61687;56.232;43.854;2022-10-16T15:34:26;21.10;;;10.10;;
73452;SDS011;61687;56.232;43.854;2022-10-16T15:36:52;16.53;;;9.93;;
73452;SDS011;61687;56.232;43.854;2022-10-16T15:39:18;16.92;;;9.07;;
73452;SDS011;61687;56.232;43.854;2022-10-16T15:41:46;22.25;;;9.90;;
73452;SDS011;61687;56.232;43.854;2022-10-16T15:44:16;22.65;;;11.23;;
73452;SDS011;61687;56.232;43.854;2022-10-16T15:46:43;22.92;;;11.10;;
73452;SDS011;61687;56.232;43.854;2022-10-16T15:49:09;20.43;;;10.70;;
73452;SDS011;61687;56.232;43.854;2022-10-16T15:51:40;20.80;;;10.30;;
73452;SDS011;61687;56.232;43.854;2022-10-16T15:54:07;17.95;;;10.30;;
73452;SDS011;61687;56.232;43.854;2022-10-16T15:56:34;17.50;;;9.00;;
73452;SDS011;61687;56.232;43.854;2022-10-16T15:59:02;21.90;;;10.00;;
73452;SDS011;61687;56.232;43.854;2022-10-16T16:01:31;19.83;;;9.30;;
73452;SDS011;61687;56.232;43.854;2022-10-16T16:04:00;22.17;;;10.70;;
73452;SDS011;61687;56.232;43.854;2022-10-16T16:06:26;17.60;;;10.05;;
73452;SDS011;61687;56.232;43.854;2022-10-16T16:08:52;19.20;;;9.80;;
73452;SDS011;61687;56.232;43.854;2022-10-16T16:11:19;16.45;;;9.60;;
73452;SDS011;61687;56.232;43.854;2022-10-16T16:13:45;18.98;;;9.55;;
73452;SDS011;61687;56.232;43.854;2022-10-16T16:16:12;20.98;;;9.75;;
73452;SDS011;61687;56.232;43.854;2022-10-16T16:18:40;16.97;;;8.97;;
73452;SDS011;61687;56.232;43.854;2022-10-16T16:21:07;17.30;;;9.10;;
73452;SDS011;61687;56.232;43.854;2022-10-16T16:23:35;20.83;;;9.43;;
73452;SDS011;61687;56.232;43.854;2022-10-16T16:26:06;18.85;;;9.93;;
73452;SDS011;61687;56.232;43.854;2022-10-16T16:28:38;19.15;;;11.10;;
73452;SDS011;61687;56.232;43.854;2022-10-16T16:31:05;20.53;;;9.80;;
73452;SDS011;61687;56.232;43.854;2022-10-16T16:33:31;26.15;;;10.77;;
73452;SDS011;61687;56.232;43.854;2022-10-16T16:35:58;25.70;;;12.00;;
73452;SDS011;61687;56.232;43.854;2022-10-16T16:38:25;22.40;;;11.85;;